Time;durP1;ratioP1;P1;durP2;ratioP2;P2;SDS_P1;SDS_P2;PMS_P1;PMS_P2;Temp;Humidity;BMP_temperature;BMP_pressure;BME280_temperature;BME280_humidity;BME280_pressure;Samples;Min_cycle;Max_cycle;Signal;HPM_P1;HPM_P2
2021/12/04 00:02:05;;;;;;;13.33;10.03;;;;;;;6.02;nan;99292.63;5135653;27;20706;-68
2021/12/04 00:04:34;;;;;;;13.83;9.03;;;;;;;5.90;nan;99299.47;5135503;27;20248;-67
2021/12/04 00:06:59;;;;;;;16.03;10.70;;;;;;;6.17;nan;99296.16;5135371;27;20569;-69
2021/12/04 00:09:24;;;;;;;17.03;10.50;;;;;;;5.76;nan;99295.88;5133939;27;20204;-69
2021/12/04 00:11:56;;;;;;;13.87;10.03;;;;;;;5.97;nan;99296.50;5135209;27;20173;-68
2021/12/04 00:14:21;;;;;;;18.77;10.10;;;;;;;6.08;nan;99296.69;5135782;27;20154;-68
2021/12/04 00:16:47;;;;;;;14.73;10.50;;;;;;;6.16;nan;99294.44;5117964;27;20161;-68
2021/12/04 00:19:12;;;;;;;20.17;10.10;;;;;;;5.77;nan;99279.91;5135437;27;20284;-68
2021/12/04 00:21:38;;;;;;;12.97;9.80;;;;;;;5.71;nan;99293.50;5134994;27;20285;-68
2021/12/04 00:24:04;;;;;;;13.30;10.17;;;;;;;5.65;nan;99289.41;5134918;27;20169;-68
2021/12/04 00:26:29;;;;;;;16.10;9.70;;;;;;;5.64;nan;99302.75;5134883;27;20206;-67
2021/12/04 00:28:54;;;;;;;14.30;9.73;;;;;;;5.64;nan;99281.56;5117683;27;20276;-67
2021/12/04 00:31:19;;;;;;;17.87;9.97;;;;;;;6.01;nan;99296.22;5117828;27;20254;-68
2021/12/04 00:33:46;;;;;;;17.00;10.93;;;;;;;5.70;nan;99286.50;5118122;27;20176;-69
2021/12/04 00:36:26;;;;;;;17.13;10.90;;;;;;;6.20;nan;99288.88;5134563;27;20187;-69
2021/12/04 00:49:47;;;;;;;13.97;9.47;;;;;;;5.77;nan;99293.16;5135591;27;20192;-70
2021/12/04 00:52:12;;;;;;;14.90;10.00;;;;;;;5.58;nan;99297.81;5135778;27;20621;-68
2021/12/04 00:54:37;;;;;;;19.00;10.40;;;;;;;5.88;nan;99300.47;5134388;27;20626;-69
2021/12/04 00:57:03;;;;;;;14.00;10.10;;;;;;;5.72;nan;99297.84;5135234;27;20172;-68
2021/12/04 00:59:28;;;;;;;19.00;10.40;;;;;;;5.36;nan;99295.50;5135342;27;20293;-68
2021/12/04 01:01:54;;;;;;;15.53;10.20;;;;;;;5.61;nan;99316.16;5134802;27;20230;-68
2021/12/04 01:04:20;;;;;;;15.07;10.27;;;;;;;5.34;nan;99292.94;5134211;27;20201;-68
2021/12/04 01:06:45;;;;;;;14.13;9.87;;;;;;;5.56;nan;99311.09;5133997;27;20282;-66
2021/12/04 01:09:12;;;;;;;17.33;10.97;;;;;;;5.62;nan;99301.97;5116656;27;20224;-69
2021/12/04 01:11:39;;;;;;;19.87;11.43;;;;;;;6.12;nan;99301.72;5133853;27;20168;-68
2021/12/04 01:14:06;;;;;;;21.37;12.27;;;;;;;5.81;nan;99296.47;5133862;27;20165;-68
2021/12/04 01:16:31;;;;;;;17.73;10.13;;;;;;;5.48;nan;99305.38;5133838;27;20165;-69
2021/12/04 01:18:56;;;;;;;18.57;10.83;;;;;;;5.97;nan;99307.94;5133136;27;20192;-69
2021/12/04 01:21:22;;;;;;;16.77;10.87;;;;;;;6.08;nan;99308.16;5133542;27;20173;-69
2021/12/04 01:23:47;;;;;;;18.27;10.90;;;;;;;6.01;nan;99305.97;5135375;27;20242;-69
2021/12/04 01:26:13;;;;;;;16.10;10.53;;;;;;;5.76;nan;99287.94;5133358;27;20592;-67
2021/12/04 01:28:38;;;;;;;17.30;10.40;;;;;;;6.11;nan;99307.13;5133720;27;20192;-68
2021/12/04 01:31:03;;;;;;;16.97;11.23;;;;;;;5.74;nan;99287.19;5135193;27;20199;-68
2021/12/04 01:33:28;;;;;;;15.47;10.53;;;;;;;5.71;nan;99285.56;5133601;27;20174;-67
2021/12/04 01:35:54;;;;;;;15.73;10.00;;;;;;;5.75;nan;99289.75;5115878;27;20200;-67
2021/12/04 01:38:19;;;;;;;18.53;10.40;;;;;;;5.62;nan;99286.09;5115977;27;20184;-68
2021/12/04 01:40:45;;;;;;;15.43;11.03;;;;;;;5.87;nan;99302.25;5133808;27;20181;-68
2021/12/04 01:43:10;;;;;;;19.90;11.53;;;;;;;5.94;nan;99300.13;5115959;27;20196;-67
2021/12/04 01:45:36;;;;;;;14.33;10.43;;;;;;;6.04;nan;99287.22;5134212;27;20698;-68
2021/12/04 01:48:02;;;;;;;18.17;10.50;;;;;;;5.70;nan;99289.16;5133038;27;20538;-67
2021/12/04 01:50:28;;;;;;;19.77;10.00;;;;;;;5.98;nan;99298.19;5115836;27;20290;-67
2021/12/04 01:52:56;;;;;;;15.50;11.30;;;;;;;6.09;nan;99304.56;5134392;27;20259;-67
2021/12/04 01:55:31;;;;;;;17.67;10.13;;;;;;;5.49;nan;99295.66;5133188;27;20531;-67
2021/12/04 01:57:57;;;;;;;16.50;11.10;;;;;;;5.80;nan;99294.75;5149885;27;20679;-68
2021/12/04 02:00:23;;;;;;;17.00;10.53;;;;;;;5.89;nan;99295.09;5115821;27;20219;-68
2021/12/04 02:02:48;;;;;;;15.60;11.53;;;;;;;5.92;nan;99281.69;5132812;27;20660;-68
2021/12/04 02:05:13;;;;;;;17.47;11.07;;;;;;;6.05;nan;99291.59;5132751;27;20539;-67
2021/12/04 02:07:39;;;;;;;18.70;11.07;;;;;;;5.77;nan;99293.16;5132715;27;20546;-67
2021/12/04 02:10:05;;;;;;;17.30;11.43;;;;;;;6.04;nan;99300.47;5132646;27;20204;-68
2021/12/04 02:12:31;;;;;;;17.00;10.70;;;;;;;5.89;nan;99295.09;5116126;27;20579;-67
2021/12/04 02:14:56;;;;;;;16.73;11.43;;;;;;;5.93;nan;99293.13;5133231;27;20252;-68
2021/12/04 02:17:21;;;;;;;18.37;11.57;;;;;;;5.94;nan;99271.84;5132799;28;20558;-68
2021/12/04 02:19:47;;;;;;;17.13;11.37;;;;;;;5.93;nan;99286.03;5132658;28;20185;-68
2021/12/04 02:22:12;;;;;;;15.70;10.80;;;;;;;6.07;nan;99281.75;5115735;28;20174;-68
2021/12/04 02:24:37;;;;;;;15.70;11.30;;;;;;;5.47;nan;99261.34;5115893;28;20172;-68
2021/12/04 02:27:03;;;;;;;17.83;11.50;;;;;;;6.11;nan;99307.13;5133996;28;20200;-69
2021/12/04 02:29:28;;;;;;;16.83;11.30;;;;;;;5.94;nan;99273.66;5133826;28;20197;-69
2021/12/04 02:31:56;;;;;;;17.37;11.47;;;;;;;6.10;nan;99278.91;5117479;27;20177;-69
2021/12/04 02:34:26;;;;;;;17.40;11.13;;;;;;;6.35;nan;99297.72;5137310;27;20253;-69
2021/12/04 02:36:52;;;;;;;18.77;11.50;;;;;;;6.18;nan;99284.59;5137538;27;20177;-68
2021/12/04 02:39:27;;;;;;;16.30;10.63;;;;;;;6.18;nan;99272.22;5136938;27;20235;-68
2021/12/04 02:41:53;;;;;;;15.67;10.73;;;;;;;6.02;nan;99278.53;5136880;27;20164;-68
2021/12/04 02:44:18;;;;;;;18.63;10.50;;;;;;;5.58;nan;99247.50;5119919;27;20173;-68
2021/12/04 02:46:43;;;;;;;14.97;11.40;;;;;;;6.18;nan;99271.38;5137489;27;20251;-68
2021/12/04 02:49:12;;;;;;;16.80;11.67;;;;;;;5.89;nan;99262.44;5140210;27;20197;-68
2021/12/04 02:51:37;;;;;;;18.53;11.03;;;;;;;6.06;nan;99253.56;5137990;27;20162;-68
2021/12/04 02:54:04;;;;;;;17.30;11.37;;;;;;;6.06;nan;99264.16;5136797;27;20180;-67
2021/12/04 02:56:30;;;;;;;15.20;11.07;;;;;;;6.14;nan;99270.69;5136795;27;20195;-68
2021/12/04 02:59:01;;;;;;;19.00;12.00;;;;;;;5.90;nan;99256.25;5137923;27;20204;-68
2021/12/04 03:01:26;;;;;;;20.00;11.93;;;;;;;6.01;nan;99260.94;5138179;27;20149;-66
2021/12/04 03:03:51;;;;;;;19.53;12.47;;;;;;;6.06;nan;99274.75;5138760;27;20170;-67
2021/12/04 03:06:17;;;;;;;21.77;12.70;;;;;;;6.24;nan;99263.91;5137737;27;20188;-67
2021/12/04 03:08:42;;;;;;;20.23;12.80;;;;;;;6.23;nan;99256.03;5138944;27;20246;-67
2021/12/04 03:11:07;;;;;;;16.80;11.83;;;;;;;5.74;nan;99245.69;5120317;27;20177;-69
2021/12/04 03:13:32;;;;;;;22.43;13.27;;;;;;;6.05;nan;99270.41;5139424;27;20217;-68
2021/12/04 03:15:59;;;;;;;18.27;12.10;;;;;;;5.82;nan;99274.34;5138352;27;20631;-69
2021/12/04 03:18:26;;;;;;;16.73;11.67;;;;;;;5.77;nan;99279.91;5119283;27;20193;-68
2021/12/04 03:20:54;;;;;;;22.03;13.73;;;;;;;6.24;nan;99279.78;5137467;27;20171;-68
2021/12/04 03:23:28;;;;;;;19.33;13.13;;;;;;;6.00;nan;99254.78;5136289;27;20172;-68
2021/12/04 03:25:56;;;;;;;21.87;13.57;;;;;;;6.44;nan;99268.00;5119941;27;20192;-68
2021/12/04 03:28:21;;;;;;;19.10;12.97;;;;;;;6.48;nan;99269.53;5118954;27;20585;-68
2021/12/04 03:30:52;;;;;;;19.07;12.53;;;;;;;6.51;nan;99263.19;5137090;27;20181;-67
2021/12/04 03:41:11;;;;;;;22.40;13.23;;;;;;;6.30;nan;99257.38;5138104;27;20161;-68
2021/12/04 03:43:36;;;;;;;18.43;12.63;;;;;;;6.41;nan;99262.91;5119167;27;20538;-68
2021/12/04 03:46:03;;;;;;;20.33;12.40;;;;;;;6.61;nan;99264.31;5119639;27;20671;-68
2021/12/04 03:50:56;;;;;;;18.17;12.07;;;;;;;6.14;nan;99275.16;5136063;27;20215;-67
2021/12/04 03:53:22;;;;;;;18.40;12.17;;;;;;;6.45;nan;99275.03;5135671;27;20249;-68
2021/12/04 03:55:47;;;;;;;20.13;13.37;;;;;;;6.59;nan;99261.75;5135432;27;20684;-68
2021/12/04 03:58:12;;;;;;;20.27;12.30;;;;;;;6.37;nan;99255.22;5135161;27;20637;-68
2021/12/04 04:00:38;;;;;;;17.73;11.70;;;;;;;5.74;nan;99236.88;5135462;27;20235;-68
2021/12/04 04:03:03;;;;;;;18.80;11.10;;;;;;;6.19;nan;99259.81;5135330;27;20213;-68
2021/12/04 04:05:28;;;;;;;16.30;11.60;;;;;;;6.20;nan;99249.13;5136498;27;20201;-69
2021/12/04 04:07:54;;;;;;;16.60;11.70;;;;;;;6.11;nan;99256.78;5135436;27;20195;-69
2021/12/04 04:10:21;;;;;;;15.87;11.87;;;;;;;6.08;nan;99233.13;5135177;27;20226;-68
2021/12/04 04:12:46;;;;;;;16.10;11.50;;;;;;;5.95;nan;99246.25;5135382;27;20176;-67
2021/12/04 04:15:11;;;;;;;15.60;11.93;;;;;;;5.94;nan;99257.75;5135336;27;20177;-68
2021/12/04 04:17:42;;;;;;;17.60;12.30;;;;;;;6.45;nan;99252.97;5117737;27;20177;-68
2021/12/04 04:20:12;;;;;;;17.53;12.30;;;;;;;5.99;nan;99270.75;5118506;27;20193;-68
2021/12/04 04:22:38;;;;;;;17.23;12.13;;;;;;;5.89;nan;99246.56;5134929;27;20257;-68
2021/12/04 04:25:03;;;;;;;18.20;12.23;;;;;;;6.39;nan;99280.69;5135433;27;20651;-68
2021/12/04 04:27:29;;;;;;;16.00;12.00;;;;;;;6.19;nan;99265.97;5137986;27;20570;-68
2021/12/04 04:29:54;;;;;;;18.60;12.60;;;;;;;6.59;nan;99260.91;5145616;27;20278;-68
2021/12/04 04:32:19;;;;;;;21.23;13.23;;;;;;;6.30;nan;99253.88;5147493;27;20231;-68
2021/12/04 04:34:51;;;;;;;17.97;12.70;;;;;;;6.62;nan;99286.38;5147303;27;20180;-68
2021/12/04 04:37:31;;;;;;;19.57;13.63;;;;;;;6.45;nan;99275.03;5148071;27;20157;-68
2021/12/04 05:02:00;;;;;;;22.27;13.57;;;;;;;6.75;nan;99243.13;5134403;27;20227;-68
2021/12/04 05:20:51;;;;;;;20.83;13.40;;;;;;;6.28;nan;99252.16;5105103;27;20215;-69
2021/12/04 05:23:17;;;;;;;20.07;13.03;;;;;;;6.75;nan;99251.09;5133715;27;20196;-67
2021/12/04 05:25:42;;;;;;;23.47;13.63;;;;;;;7.03;nan;99244.88;5116239;27;20198;-67
2021/12/04 05:28:08;;;;;;;20.30;13.50;;;;;;;6.64;nan;99224.34;5116657;27;20218;-69
2021/12/04 05:30:33;;;;;;;23.47;12.50;;;;;;;7.28;nan;99243.31;5133365;27;20166;-68
2021/12/04 05:32:59;;;;;;;22.47;13.63;;;;;;;7.26;nan;99239.91;5133711;27;20165;-67
2021/12/04 05:35:25;;;;;;;22.40;14.00;;;;;;;7.10;nan;99234.75;5133452;27;20171;-70
2021/12/04 05:37:50;;;;;;;19.83;13.40;;;;;;;6.65;nan;99233.16;5133334;27;20168;-68
2021/12/04 05:40:16;;;;;;;23.03;13.77;;;;;;;6.94;nan;99231.34;5135015;27;20593;-68
2021/12/04 05:42:42;;;;;;;21.90;14.57;;;;;;;7.06;nan;99226.13;5133459;27;20671;-69
2021/12/04 05:45:16;;;;;;;19.27;13.97;;;;;;;6.65;nan;99219.91;5133184;27;20274;-70
2021/12/04 05:47:50;;;;;;;19.60;12.80;;;;;;;6.94;nan;99228.69;5133324;27;20238;-67
2021/12/04 05:50:35;;;;;;;18.93;13.83;;;;;;;6.89;nan;99219.22;5133058;27;20162;-68
2021/12/04 05:55:27;;;;;;;20.80;13.80;;;;;;;6.97;nan;99201.97;5133288;27;20526;-68
2021/12/04 05:57:52;;;;;;;21.47;13.00;;;;;;;6.96;nan;99218.84;5132826;27;20262;-68
2021/12/04 06:00:20;;;;;;;19.60;13.30;;;;;;;7.10;nan;99240.91;5134766;27;20210;-68
2021/12/04 06:02:46;;;;;;;20.27;13.17;;;;;;;6.92;nan;99225.28;5133280;27;20594;-68
2021/12/04 06:05:12;;;;;;;22.90;13.93;;;;;;;7.11;nan;99221.38;5132466;27;20177;-68
2021/12/04 06:07:37;;;;;;;22.00;13.13;;;;;;;7.07;nan;99213.72;5132434;27;20170;-68
2021/12/04 06:10:03;;;;;;;24.20;13.87;;;;;;;6.88;nan;99211.38;5115523;28;20285;-68
2021/12/04 06:12:29;;;;;;;22.93;13.80;;;;;;;7.04;nan;99227.16;5132739;27;20605;-68
2021/12/04 06:14:54;;;;;;;21.73;13.63;;;;;;;6.99;nan;99219.50;5132934;27;20212;-69
2021/12/04 06:17:20;;;;;;;23.37;14.50;;;;;;;7.00;nan;99234.47;5132675;27;20189;-68
2021/12/04 06:22:42;;;;;;;23.30;14.03;;;;;;;7.21;nan;99243.72;5133173;28;20215;-68
2021/12/04 06:25:10;;;;;;;21.60;13.17;;;;;;;6.99;nan;99227.44;5134244;27;20252;-69
2021/12/04 06:27:36;;;;;;;20.37;12.73;;;;;;;7.16;nan;99250.28;5132579;28;20265;-68
2021/12/04 06:30:04;;;;;;;24.87;14.60;;;;;;;7.24;nan;99252.44;5115145;28;20667;-68
2021/12/04 06:32:30;;;;;;;21.83;13.33;;;;;;;7.07;nan;99241.09;5132710;28;20585;-68
2021/12/04 06:34:55;;;;;;;22.77;12.90;;;;;;;7.19;nan;99221.75;5132460;28;20170;-67
2021/12/04 06:37:20;;;;;;;25.50;14.77;;;;;;;7.22;nan;99239.25;5132520;28;20198;-68
2021/12/04 06:39:46;;;;;;;20.13;13.13;;;;;;;7.06;nan;99231.44;5115127;28;20193;-69
2021/12/04 06:42:11;;;;;;;17.27;11.47;;;;;;;6.82;nan;99240.94;5115157;28;20610;-68
2021/12/04 06:44:36;;;;;;;20.07;12.80;;;;;;;6.82;nan;99235.63;5115092;28;20185;-69
2021/12/04 06:47:02;;;;;;;19.77;12.63;;;;;;;6.92;nan;99251.81;5132312;28;20230;-69
2021/12/04 06:49:35;;;;;;;23.60;12.63;;;;;;;7.06;nan;99239.41;5133589;27;20261;-69
2021/12/04 06:52:04;;;;;;;20.17;13.50;;;;;;;6.88;nan;99243.19;5133044;28;20170;-69
2021/12/04 06:54:35;;;;;;;19.67;11.07;;;;;;;6.79;nan;99236.69;5132134;28;20175;-67
2021/12/04 06:57:03;;;;;;;21.10;12.00;;;;;;;6.85;nan;99240.75;5133671;27;20145;-68
2021/12/04 06:59:31;;;;;;;19.73;12.10;;;;;;;7.06;nan;99241.16;5132178;28;20220;-68
2021/12/04 07:01:56;;;;;;;19.67;11.67;;;;;;;7.11;nan;99237.31;5115446;28;20175;-68
2021/12/04 07:04:28;;;;;;;21.80;13.10;;;;;;;7.19;nan;99250.94;5132385;28;20186;-68
2021/12/04 07:06:53;;;;;;;21.27;12.97;;;;;;;7.17;nan;99267.91;5132245;28;20190;-69
2021/12/04 07:09:19;;;;;;;19.93;12.17;;;;;;;6.97;nan;99233.81;5132330;28;20263;-70
2021/12/04 07:11:44;;;;;;;21.93;12.33;;;;;;;6.55;nan;99252.28;5115068;28;20699;-70
2021/12/04 07:14:09;;;;;;;17.77;11.83;;;;;;;6.88;nan;99256.47;5132562;28;20181;-69
2021/12/04 07:16:35;;;;;;;20.73;12.30;;;;;;;6.53;nan;99243.59;5115027;27;20184;-69
2021/12/04 07:19:00;;;;;;;19.93;12.77;;;;;;;6.72;nan;99258.38;5118392;27;20611;-69
2021/12/04 07:21:25;;;;;;;18.07;12.23;;;;;;;6.78;nan;99266.81;5137288;27;20176;-69
2021/12/04 07:23:51;;;;;;;17.83;11.30;;;;;;;6.78;nan;99274.75;5118720;27;20622;-68
2021/12/04 07:26:17;;;;;;;22.37;12.97;;;;;;;6.95;nan;99289.59;5136037;27;20246;-68
2021/12/04 07:28:43;;;;;;;23.77;13.47;;;;;;;6.74;nan;99272.38;5136214;27;20198;-69
2021/12/04 07:31:08;;;;;;;20.57;12.90;;;;;;;7.17;nan;99282.00;5135849;27;20321;-68
2021/12/04 07:33:34;;;;;;;27.47;14.83;;;;;;;7.15;nan;99277.75;5138197;27;20644;-69
2021/12/04 07:36:00;;;;;;;21.77;13.50;;;;;;;6.58;nan;99262.72;5118638;27;20174;-69
2021/12/04 07:38:26;;;;;;;20.33;12.50;;;;;;;6.76;nan;99292.56;5136025;27;20206;-68
2021/12/04 07:40:51;;;;;;;20.47;11.67;;;;;;;6.63;nan;99267.72;5135765;27;20544;-69
2021/12/04 07:43:16;;;;;;;22.93;13.03;;;;;;;6.77;nan;99274.84;5137016;27;20211;-68
2021/12/04 07:45:42;;;;;;;22.70;13.57;;;;;;;6.75;nan;99268.78;5135482;27;20255;-69
2021/12/04 07:48:07;;;;;;;18.30;11.83;;;;;;;7.18;nan;99293.47;5135473;27;20177;-69
2021/12/04 07:50:33;;;;;;;23.53;13.47;;;;;;;6.92;nan;99281.00;5135575;27;20177;-68
2021/12/04 07:52:58;;;;;;;23.67;13.40;;;;;;;7.04;nan;99288.16;5118375;27;20178;-70
2021/12/04 07:55:25;;;;;;;21.63;13.23;;;;;;;6.95;nan;99288.75;5135665;27;20260;-68
2021/12/04 07:57:50;;;;;;;17.70;11.93;;;;;;;6.91;nan;99277.50;5136660;27;20180;-71
2021/12/04 08:00:17;;;;;;;22.70;13.97;;;;;;;7.07;nan;99299.47;5135276;27;20184;-68
2021/12/04 08:02:43;;;;;;;25.13;13.33;;;;;;;6.82;nan;99291.31;5135200;27;20549;-69
2021/12/04 08:05:09;;;;;;;24.53;13.37;;;;;;;7.00;nan;99276.91;5118412;27;20179;-68
2021/12/04 08:07:34;;;;;;;20.77;12.50;;;;;;;6.98;nan;99283.25;5135216;27;20654;-69
2021/12/04 08:10:00;;;;;;;23.07;14.60;;;;;;;6.97;nan;99281.56;5134829;27;20254;-68
2021/12/04 08:12:25;;;;;;;26.93;14.17;;;;;;;6.96;nan;99290.47;5136728;27;20182;-69
2021/12/04 08:14:53;;;;;;;23.40;14.27;;;;;;;7.11;nan;99282.41;5135137;27;20667;-69
2021/12/04 08:17:18;;;;;;;20.80;12.97;;;;;;;6.90;nan;99273.13;5118004;27;20262;-68
2021/12/04 08:19:43;;;;;;;23.50;11.80;;;;;;;7.00;nan;99291.97;5134784;27;20220;-69
2021/12/04 08:22:09;;;;;;;18.47;12.70;;;;;;;6.90;nan;99273.13;5134809;27;20230;-69
2021/12/04 08:24:34;;;;;;;16.33;10.33;;;;;;;6.33;nan;99296.13;5136659;27;20173;-69
2021/12/04 08:27:01;;;;;;;19.60;12.40;;;;;;;6.94;nan;99303.81;5135947;27;20542;-69
2021/12/04 08:29:26;;;;;;;31.33;19.13;;;;;;;7.10;nan;99296.63;5116567;27;20202;-69
2021/12/04 08:31:51;;;;;;;26.93;15.40;;;;;;;7.17;nan;99292.63;5117374;27;20246;-69
2021/12/04 08:34:18;;;;;;;20.67;13.07;;;;;;;7.27;nan;99303.50;5134609;27;20175;-69
2021/12/04 08:36:44;;;;;;;23.97;12.77;;;;;;;7.29;nan;99314.03;5117598;27;20190;-68
2021/12/04 08:39:09;;;;;;;22.27;11.53;;;;;;;6.32;nan;99319.09;5134470;27;20281;-68
2021/12/04 08:41:35;;;;;;;18.60;11.33;;;;;;;6.38;nan;99326.69;5134380;27;20298;-68
2021/12/04 08:44:00;;;;;;;20.10;12.27;;;;;;;6.74;nan;99317.47;5117365;27;20169;-69
2021/12/04 08:46:25;;;;;;;26.87;14.03;;;;;;;7.13;nan;99328.28;5135994;27;20213;-68
2021/12/04 08:48:54;;;;;;;28.17;15.20;;;;;;;6.64;nan;99327.75;5134365;27;20209;-68
2021/12/04 08:51:21;;;;;;;28.40;17.07;;;;;;;6.86;nan;99340.56;5134427;27;20198;-68
2021/12/04 08:53:47;;;;;;;21.20;12.77;;;;;;;6.76;nan;99320.88;5134779;27;20655;-70
2021/12/04 08:56:12;;;;;;;22.60;13.60;;;;;;;7.03;nan;99323.59;5134931;27;20193;-68
2021/12/04 08:58:40;;;;;;;19.63;13.67;;;;;;;6.66;nan;99325.88;5135206;27;20567;-68
2021/12/04 09:01:11;;;;;;;25.53;13.67;;;;;;;6.80;nan;99351.56;5134882;27;20183;-68
2021/12/04 09:03:38;;;;;;;27.47;15.97;;;;;;;6.86;nan;99332.63;5135780;27;20187;-68
2021/12/04 09:06:05;;;;;;;27.83;15.70;;;;;;;6.76;nan;99327.03;5134027;27;20293;-69
2021/12/04 09:08:30;;;;;;;31.07;16.73;;;;;;;6.79;nan;99326.00;5116872;27;20674;-67
2021/12/04 09:10:58;;;;;;;29.30;18.63;;;;;;;7.09;nan;99329.41;5135532;27;20251;-68
2021/12/04 09:13:25;;;;;;;27.23;16.77;;;;;;;6.85;nan;99321.16;5135194;27;20171;-67
2021/12/04 09:15:52;;;;;;;27.50;16.63;;;;;;;6.41;nan;99313.25;5135542;27;20546;-68
2021/12/04 09:18:17;;;;;;;27.03;15.83;;;;;;;6.27;nan;99303.47;5117035;27;20284;-69
2021/12/04 09:20:42;;;;;;;25.23;14.97;;;;;;;7.12;nan;99329.22;5134864;27;20226;-69
2021/12/04 09:23:14;;;;;;;25.83;15.13;;;;;;;7.29;nan;99319.34;5133777;27;20674;-68
2021/12/04 09:25:44;;;;;;;25.97;16.30;;;;;;;7.08;nan;99313.59;5134291;27;20565;-69
2021/12/04 09:28:18;;;;;;;24.47;14.20;;;;;;;7.12;nan;99297.38;5134397;27;20280;-68
2021/12/04 09:31:12;;;;;;;25.30;15.77;;;;;;;6.28;nan;99314.91;5135078;27;20161;-68
2021/12/04 10:11:22;;;;;;;24.17;15.17;;;;;;;7.59;nan;99293.47;5135313;27;20174;-69
2021/12/04 10:11:48;;;;;;;22.73;14.20;;;;;;;6.78;nan;99281.84;5133905;27;20194;-69
2021/12/04 10:14:43;;;;;;;22.37;14.93;;;;;;;7.29;nan;99295.44;5134319;27;20180;-69
2021/12/04 10:19:52;;;;;;;24.73;15.00;;;;;;;6.81;nan;99286.97;5134526;27;20200;-71
2021/12/04 10:25:15;;;;;;;22.40;15.00;;;;;;;6.26;nan;99303.53;5134943;28;20182;-68
2021/12/04 10:33:11;;;;;;;24.67;15.53;;;;;;;6.80;nan;99295.88;5133890;28;20161;-68
2021/12/04 10:35:37;;;;;;;22.53;13.13;;;;;;;5.59;nan;99267.75;5116227;28;20170;-69
2021/12/04 10:38:05;;;;;;;21.37;14.90;;;;;;;6.23;nan;99286.03;5133524;28;20199;-69
2021/12/04 10:40:43;;;;;;;25.37;15.63;;;;;;;5.89;nan;99252.75;5133456;28;20177;-71
2021/12/04 10:43:16;;;;;;;25.00;15.67;;;;;;;6.05;nan;99265.94;5134284;28;20165;-68
2021/12/04 10:45:45;;;;;;;25.97;16.17;;;;;;;6.68;nan;99255.03;5134220;28;20174;-69
2021/12/04 10:48:18;;;;;;;24.97;16.53;;;;;;;6.99;nan;99269.91;5137358;27;20210;-68
2021/12/04 10:50:54;;;;;;;20.87;14.27;;;;;;;6.36;nan;99254.38;5159049;27;20258;-68
2021/12/04 10:53:23;;;;;;;24.30;15.63;;;;;;;6.33;nan;99261.66;5148301;27;20174;-68
2021/12/04 10:55:53;;;;;;;23.07;14.83;;;;;;;6.06;nan;99258.84;5135543;27;20172;-69
2021/12/04 10:58:47;;;;;;;22.13;15.10;;;;;;;6.43;nan;99245.09;5152724;27;20303;-69
2021/12/04 11:01:43;;;;;;;24.67;15.40;;;;;;;6.90;nan;99244.81;5150324;27;20171;-68
2021/12/04 11:04:37;;;;;;;22.00;15.30;;;;;;;7.23;nan;99246.28;5133002;27;20179;-69
2021/12/04 11:37:49;;;;;;;22.80;13.73;;;;;;;7.80;nan;99238.97;5136995;27;20209;-71
2021/12/04 11:40:27;;;;;;;19.77;13.57;;;;;;;7.54;nan;99223.91;5137347;27;20664;-69
2021/12/04 11:42:59;;;;;;;17.90;12.47;;;;;;;7.26;nan;99202.75;5136421;27;20160;-69
2021/12/04 11:45:31;;;;;;;17.87;12.40;;;;;;;8.07;nan;99232.72;5136445;27;20159;-70
2021/12/04 11:47:58;;;;;;;16.47;11.63;;;;;;;8.43;nan;99219.59;5119077;27;20202;-69
2021/12/04 11:50:41;;;;;;;15.20;11.50;;;;;;;8.40;nan;99229.59;5136252;27;20541;-70
2021/12/04 11:53:12;;;;;;;16.47;12.13;;;;;;;8.08;nan;99213.19;5135982;27;20160;-70
2021/12/04 11:55:41;;;;;;;15.77;11.70;;;;;;;7.96;nan;99228.16;5135858;27;20614;-68
2021/12/04 11:58:24;;;;;;;19.40;12.97;;;;;;;7.90;nan;99225.06;5118284;27;20317;-69
2021/12/04 12:00:54;;;;;;;20.47;14.13;;;;;;;7.81;nan;99232.69;5143386;22;20248;-69
2021/12/04 12:03:24;;;;;;;20.33;13.03;;;;;;;8.20;nan;99241.59;5114914;28;20169;-69
2021/12/04 12:05:54;;;;;;;17.87;12.27;;;;;;;8.69;nan;99232.91;5114702;28;20200;-69
2021/12/04 12:08:37;;;;;;;20.70;13.13;;;;;;;8.40;nan;99226.94;5115957;28;20180;-68
2021/12/04 12:11:13;;;;;;;17.40;10.80;;;;;;;8.46;nan;99211.41;5115982;28;20652;-69
2021/12/04 12:14:09;;;;;;;19.70;12.13;;;;;;;8.07;nan;99224.75;5114862;28;20689;-71
2021/12/04 12:16:39;;;;;;;17.00;11.80;;;;;;;8.10;nan;99213.91;5113037;28;20216;-68
2021/12/04 12:19:10;;;;;;;17.53;11.37;;;;;;;8.44;nan;99228.44;5114756;28;20677;-68
2021/12/04 12:22:00;;;;;;;20.27;12.17;;;;;;;8.61;nan;99230.78;5115254;28;20159;-69
2021/12/04 12:24:52;;;;;;;18.80;12.37;;;;;;;8.52;nan;99234.06;5098985;28;20200;-69
2021/12/04 12:27:32;;;;;;;16.30;11.03;;;;;;;8.61;nan;99233.44;5115685;28;20295;-69
2021/12/04 12:36:13;;;;;;;20.17;12.10;;;;;;;8.39;nan;99226.09;5114180;28;20160;-68
2021/12/04 12:38:57;;;;;;;18.83;11.83;;;;;;;8.55;nan;99209.06;5115340;28;20153;-69
2021/12/04 12:41:30;;;;;;;16.17;11.27;;;;;;;8.69;nan;99203.66;5115623;28;20247;-68
2021/12/04 12:44:09;;;;;;;17.07;12.13;;;;;;;8.44;nan;99208.00;5097389;28;20187;-69
2021/12/04 12:46:37;;;;;;;16.43;11.00;;;;;;;8.35;nan;99200.69;5114931;28;20203;-68
2021/12/04 12:49:05;;;;;;;15.83;10.77;;;;;;;8.45;nan;99215.03;5114732;28;20170;-68
2021/12/04 12:51:34;;;;;;;17.87;12.33;;;;;;;8.40;nan;99208.34;5113525;28;20737;-68
2021/12/04 12:54:02;;;;;;;19.07;12.00;;;;;;;8.63;nan;99215.56;5113775;28;20181;-67
2021/12/04 12:56:31;;;;;;;18.03;12.20;;;;;;;8.36;nan;99207.69;5114281;28;20204;-68
2021/12/04 12:59:02;;;;;;;15.43;11.60;;;;;;;8.25;nan;99217.34;5113379;28;20179;-68
2021/12/04 13:13:25;;;;;;;19.33;13.17;;;;;;;8.34;nan;99188.34;5114297;28;20527;-67
2021/12/04 13:15:52;;;;;;;17.53;12.57;;;;;;;7.27;nan;99168.16;5113758;28;20176;-68
2021/12/04 13:18:23;;;;;;;16.77;12.17;;;;;;;8.49;nan;99196.19;5114940;28;20173;-69
2021/12/04 13:20:52;;;;;;;22.53;12.77;;;;;;;8.45;nan;99198.22;5113701;28;20192;-68
2021/12/04 13:23:20;;;;;;;29.73;14.87;;;;;;;8.37;nan;99182.81;5113428;28;20184;-70
2021/12/04 13:25:50;;;;;;;18.17;11.70;;;;;;;7.98;nan;99183.72;5114472;28;20180;-69
2021/12/04 13:28:21;;;;;;;19.20;12.07;;;;;;;7.85;nan;99174.91;5113173;28;20646;-69
2021/12/04 13:30:46;;;;;;;21.67;14.40;;;;;;;7.55;nan;99185.78;5114379;28;20197;-68
2021/12/04 13:33:11;;;;;;;21.90;15.30;;;;;;;8.16;nan;99178.94;5113537;28;20282;-69
2021/12/04 13:35:37;;;;;;;27.37;15.70;;;;;;;8.12;nan;99188.09;5113270;28;20184;-69
2021/12/04 13:38:04;;;;;;;20.40;13.50;;;;;;;8.22;nan;99181.22;5114455;28;20531;-68
2021/12/04 13:40:30;;;;;;;18.70;13.03;;;;;;;8.12;nan;99188.94;5113146;28;20192;-69
2021/12/04 13:42:55;;;;;;;20.00;13.07;;;;;;;8.24;nan;99181.94;5114316;28;20176;-69
2021/12/04 13:45:21;;;;;;;17.77;12.83;;;;;;;8.50;nan;99192.59;5112867;28;20198;-68
2021/12/04 13:47:52;;;;;;;19.40;12.03;;;;;;;8.41;nan;99200.25;5112964;28;20697;-69
2021/12/04 13:53:05;;;;;;;20.07;12.53;;;;;;;7.87;nan;99201.38;5113537;28;20160;-69
2021/12/04 13:55:35;;;;;;;16.60;12.40;;;;;;;7.82;nan;99194.56;5112542;28;20169;-69
2021/12/04 13:58:02;;;;;;;23.10;12.90;;;;;;;7.79;nan;99199.19;5113279;28;20180;-70
2021/12/04 14:00:28;;;;;;;18.37;12.53;;;;;;;8.21;nan;99190.13;5115102;28;20589;-68
2021/12/04 14:02:53;;;;;;;18.00;11.80;;;;;;;7.99;nan;99182.78;5113388;28;20172;-69
2021/12/04 14:05:23;;;;;;;17.17;11.63;;;;;;;7.55;nan;99169.84;5095830;28;20173;-68
2021/12/04 14:07:55;;;;;;;17.50;12.17;;;;;;;7.87;nan;99201.38;5113045;28;20207;-68
2021/12/04 14:10:23;;;;;;;18.50;12.20;;;;;;;7.54;nan;99186.72;5112727;28;20195;-68
2021/12/04 14:12:49;;;;;;;16.93;11.33;;;;;;;7.81;nan;99213.25;5112384;28;20198;-69
2021/12/04 14:15:18;;;;;;;18.30;12.33;;;;;;;7.93;nan;99208.91;5095656;28;20286;-68
2021/12/04 14:17:44;;;;;;;22.00;12.57;;;;;;;7.51;nan;99208.19;5113701;28;20250;-68
2021/12/04 14:20:13;;;;;;;20.43;12.97;;;;;;;6.62;nan;99209.50;5112183;28;20595;-68
2021/12/04 14:22:50;;;;;;;20.33;13.40;;;;;;;7.49;nan;99233.97;5112994;28;20658;-69
2021/12/04 14:25:16;;;;;;;22.00;13.53;;;;;;;7.60;nan;99228.81;5113084;28;20168;-69
2021/12/04 14:27:42;;;;;;;21.67;13.73;;;;;;;7.81;nan;99235.34;5115169;28;20677;-69
2021/12/04 14:30:19;;;;;;;21.77;13.63;;;;;;;6.91;nan;99208.53;5100266;28;20222;-69